createdAt,value
2018-06-05T00:01:42.730Z,18.30
2018-06-05T00:04:11.237Z,18.30
2018-06-05T00:06:39.885Z,18.30
2018-06-05T00:09:08.890Z,18.30
2018-06-05T00:11:37.918Z,18.30
2018-06-05T00:14:06.410Z,18.30
2018-06-05T00:19:03.138Z,18.30
2018-06-05T00:21:32.009Z,18.20
2018-06-05T00:24:00.870Z,18.30
2018-06-05T00:26:29.923Z,18.20
2018-06-05T00:28:58.714Z,18.20
2018-06-05T00:33:55.321Z,18.30
2018-06-05T00:36:23.858Z,18.20
2018-06-05T00:38:52.394Z,18.30
2018-06-05T00:41:20.926Z,18.30
2018-06-05T00:46:17.601Z,18.00
2018-06-05T00:48:46.110Z,18.00
2018-06-05T00:51:25.718Z,17.90
2018-06-05T00:56:22.391Z,18.00
2018-06-05T00:58:50.927Z,17.80
2018-06-05T01:01:19.459Z,17.80
2018-06-05T01:03:48.802Z,17.90
2018-06-05T01:06:17.362Z,17.70
2018-06-05T01:08:46.485Z,17.80
2018-06-05T01:11:15.043Z,17.80
2018-06-05T01:13:43.534Z,17.80
2018-06-05T01:16:12.033Z,17.80
2018-06-05T01:18:40.481Z,17.80
2018-06-05T01:21:08.950Z,17.80
2018-06-05T01:23:37.493Z,17.60
2018-06-05T01:26:06.049Z,17.30
2018-06-05T01:28:34.573Z,17.30
2018-06-05T01:31:03.053Z,17.20
2018-06-05T01:33:31.866Z,17.30
2018-06-05T01:36:00.407Z,17.40
2018-06-05T01:40:57.025Z,17.10
2018-06-05T01:43:25.551Z,16.80
2018-06-05T01:45:54.070Z,16.90
2018-06-05T01:48:22.611Z,16.90
2018-06-05T01:53:19.375Z,17.10
2018-06-05T01:55:47.885Z,16.90
2018-06-05T01:58:16.386Z,17.00
2018-06-05T02:00:44.903Z,17.10
2018-06-05T02:03:13.337Z,17.20
2018-06-05T02:05:41.853Z,17.20
2018-06-05T02:08:10.395Z,17.20
2018-06-05T02:10:38.912Z,17.20
2018-06-05T02:13:07.448Z,17.20
2018-06-05T02:15:36.073Z,17.30
2018-06-05T02:18:04.586Z,17.30
2018-06-05T02:23:01.307Z,17.30
2018-06-05T02:25:29.771Z,17.30
2018-06-05T02:27:58.273Z,17.40
2018-06-05T02:30:26.807Z,17.30
2018-06-05T02:32:55.268Z,17.20
2018-06-05T02:35:23.868Z,16.80
2018-06-05T02:37:52.428Z,16.50
2018-06-05T02:42:49.185Z,16.60
2018-06-05T02:47:46.018Z,16.90
2018-06-05T02:50:14.482Z,17.00
2018-06-05T02:52:42.956Z,16.90
2018-06-05T02:55:11.491Z,17.00
2018-06-05T02:57:39.950Z,16.70
2018-06-05T03:00:08.421Z,16.30
2018-06-05T03:02:36.887Z,16.30
2018-06-05T03:05:05.452Z,16.50
2018-06-05T03:07:33.966Z,16.60
2018-06-05T03:10:02.459Z,16.70
2018-06-05T03:12:30.990Z,16.60
2018-06-05T03:14:59.981Z,16.50
2018-06-05T03:17:28.458Z,16.30
2018-06-05T03:19:56.970Z,16.20
2018-06-05T03:22:25.388Z,16.10
2018-06-05T03:24:53.901Z,16.20
2018-06-05T03:27:22.423Z,16.40
2018-06-05T03:29:50.912Z,16.50
2018-06-05T03:32:19.381Z,16.20
2018-06-05T03:34:47.881Z,16.30
2018-06-05T03:37:16.427Z,16.70
2018-06-05T03:39:44.843Z,16.60
2018-06-05T03:42:13.383Z,16.40
2018-06-05T03:44:41.911Z,16.40
2018-06-05T03:47:10.920Z,16.40
2018-06-05T03:49:41.861Z,16.30
2018-06-05T03:52:10.822Z,16.50
2018-06-05T03:54:39.369Z,16.50
2018-06-05T03:57:07.884Z,16.50
2018-06-05T03:59:36.439Z,16.40
2018-06-05T04:02:05.016Z,16.60
2018-06-05T04:04:33.526Z,16.40
2018-06-05T04:07:01.997Z,16.40
2018-06-05T04:09:30.491Z,16.80
2018-06-05T04:11:59.050Z,16.50
2018-06-05T04:14:27.502Z,16.40
2018-06-05T04:16:55.968Z,16.40
2018-06-05T04:19:24.494Z,16.40
2018-06-05T04:21:53.010Z,16.50
2018-06-05T04:24:21.521Z,16.60
2018-06-05T04:26:50.709Z,16.70
2018-06-05T04:29:19.195Z,16.70
2018-06-05T04:31:47.702Z,16.80
2018-06-05T04:34:16.169Z,16.80
2018-06-05T04:36:44.696Z,16.80
2018-06-05T04:39:13.206Z,16.60
2018-06-05T04:41:41.766Z,16.90
2018-06-05T04:44:10.246Z,16.80
2018-06-05T04:46:38.800Z,16.70
2018-06-05T04:49:07.434Z,16.90
2018-06-05T04:51:35.962Z,16.90
2018-06-05T04:54:04.595Z,17.10
2018-06-05T04:56:33.297Z,17.10
2018-06-05T05:01:30.102Z,17.30
2018-06-05T05:03:58.969Z,17.20
2018-06-05T05:06:27.452Z,17.10
2018-06-05T05:08:56.020Z,17.20
2018-06-05T05:11:24.473Z,17.20
2018-06-05T05:13:53.042Z,17.20
2018-06-05T05:16:21.542Z,17.30
2018-06-05T05:18:50.116Z,17.40
2018-06-05T05:21:18.690Z,17.30
2018-06-05T05:23:47.194Z,17.40
2018-06-05T05:26:15.683Z,17.60
2018-06-05T05:28:44.214Z,17.70
2018-06-05T05:31:12.730Z,17.80
2018-06-05T05:33:41.266Z,17.60
2018-06-05T05:36:09.759Z,17.70
2018-06-05T05:38:38.270Z,17.70
2018-06-05T05:41:06.786Z,17.80
2018-06-05T05:43:35.277Z,17.90
2018-06-05T05:46:03.746Z,18.10
2018-06-05T05:48:32.275Z,18.00
2018-06-05T05:51:00.775Z,18.00
2018-06-05T05:53:29.235Z,18.20
2018-06-05T05:55:57.752Z,18.20
2018-06-05T05:58:26.348Z,18.30
2018-06-05T06:00:54.927Z,18.30
2018-06-05T06:03:23.497Z,18.40
2018-06-05T06:05:52.034Z,18.40
2018-06-05T06:08:20.538Z,18.50
2018-06-05T06:10:49.022Z,18.50
2018-06-05T06:13:17.538Z,18.60
2018-06-05T06:15:46.075Z,18.50
2018-06-05T06:18:14.531Z,18.60
2018-06-05T06:20:43.083Z,18.70
2018-06-05T06:23:11.665Z,18.80
2018-06-05T06:25:40.195Z,18.80
2018-06-05T06:28:08.689Z,18.90
2018-06-05T06:30:37.169Z,19.00
2018-06-05T06:33:05.756Z,19.10
2018-06-05T06:35:34.257Z,19.20
2018-06-05T06:38:02.778Z,19.30
2018-06-05T06:40:31.537Z,19.30
2018-06-05T06:42:59.986Z,19.40
2018-06-05T06:45:28.578Z,19.60
2018-06-05T06:47:57.384Z,19.60
2018-06-05T06:50:25.997Z,19.70
2018-06-05T06:52:54.642Z,19.90
2018-06-05T06:55:23.206Z,20.00
2018-06-05T06:57:51.778Z,20.10
2018-06-05T07:00:20.434Z,20.30
2018-06-05T07:02:48.917Z,20.40
2018-06-05T07:05:17.468Z,20.60
2018-06-05T07:07:45.961Z,20.70
2018-06-05T07:10:14.426Z,20.80
2018-06-05T07:12:42.962Z,21.00
2018-06-05T07:15:11.491Z,21.00
2018-06-05T07:20:08.271Z,21.10
2018-06-05T07:22:36.883Z,21.30
2018-06-05T07:25:05.512Z,21.40
2018-06-05T07:27:34.029Z,21.70
2018-06-05T07:30:02.477Z,21.90
2018-06-05T07:32:30.955Z,21.90
2018-06-05T07:34:59.469Z,22.00
2018-06-05T07:37:28.022Z,22.20
2018-06-05T07:39:56.556Z,22.40
2018-06-05T07:42:25.098Z,22.40
2018-06-05T07:44:53.631Z,22.50
2018-06-05T07:47:22.131Z,22.60
2018-06-05T07:49:50.723Z,22.80
2018-06-05T07:52:19.350Z,22.80
2018-06-05T07:54:47.952Z,23.00
2018-06-05T07:57:16.447Z,23.10
2018-06-05T07:59:45.030Z,23.10
2018-06-05T08:02:13.583Z,23.30
2018-06-05T08:04:42.138Z,23.60
2018-06-05T08:09:39.067Z,23.70
2018-06-05T08:12:07.578Z,23.50
2018-06-05T08:17:04.722Z,23.70
2018-06-05T08:19:33.326Z,23.80
2018-06-05T08:22:01.903Z,23.90
2018-06-05T08:26:58.617Z,24.40
2018-06-05T08:29:27.133Z,24.40
2018-06-05T08:31:55.677Z,24.30
2018-06-05T08:34:24.191Z,24.20
2018-06-05T08:36:52.622Z,24.40
2018-06-05T08:39:21.128Z,24.50
2018-06-05T08:41:49.637Z,24.70
2018-06-05T08:44:18.270Z,24.70
2018-06-05T08:46:46.801Z,24.50
2018-06-05T08:49:15.373Z,24.70
2018-06-05T08:51:43.890Z,24.90
2018-06-05T08:56:40.637Z,24.90
2018-06-05T08:59:09.247Z,25.00
2018-06-05T09:01:37.751Z,25.20
2018-06-05T09:04:06.286Z,25.20
2018-06-05T09:06:34.791Z,25.00
2018-06-05T09:09:03.403Z,25.10
2018-06-05T09:11:31.995Z,25.20
2018-06-05T09:14:00.463Z,25.40
2018-06-05T09:16:28.900Z,25.40
2018-06-05T09:18:57.388Z,25.70
2018-06-05T09:23:54.387Z,25.40
2018-06-05T09:26:23.036Z,25.60
2018-06-05T09:31:20.498Z,26.30
2018-06-05T09:33:48.964Z,26.40
2018-06-05T09:36:18.404Z,26.90
2018-06-05T09:41:15.174Z,26.40
2018-06-05T09:43:43.730Z,26.30
2018-06-05T09:46:12.328Z,25.80
2018-06-05T09:48:40.913Z,25.30
2018-06-05T09:51:12.297Z,25.50
2018-06-05T09:53:41.427Z,25.90
2018-06-05T09:56:09.903Z,26.10
2018-06-05T09:58:38.484Z,25.90
2018-06-05T10:01:07.117Z,26.20
2018-06-05T10:03:35.722Z,26.40
2018-06-05T10:06:04.295Z,26.60
2018-06-05T10:08:32.864Z,26.50
2018-06-05T10:11:01.434Z,27.00
2018-06-05T10:13:29.943Z,27.30
2018-06-05T10:15:58.479Z,26.90
2018-06-05T10:18:27.071Z,26.30
2018-06-05T10:23:24.039Z,25.90
2018-06-05T10:28:20.905Z,26.50
2018-06-05T10:30:49.555Z,26.70
2018-06-05T10:33:18.172Z,26.80
2018-06-05T10:38:14.899Z,27.20
2018-06-05T10:40:43.407Z,27.10
2018-06-05T10:45:39.921Z,27.10
2018-06-05T10:48:08.429Z,27.40
2018-06-05T10:53:08.943Z,27.60
2018-06-05T10:55:37.613Z,27.70
2018-06-05T10:58:06.191Z,27.80
2018-06-05T11:00:34.710Z,27.80
2018-06-05T11:03:03.186Z,27.70
2018-06-05T11:05:31.618Z,27.70
2018-06-05T11:08:00.195Z,27.50
2018-06-05T11:10:28.931Z,27.50
2018-06-05T11:12:57.358Z,27.60
2018-06-05T11:15:25.878Z,27.50
2018-06-05T11:17:54.387Z,27.50
2018-06-05T11:20:22.892Z,27.50
2018-06-05T11:22:51.314Z,27.60
2018-06-05T11:25:19.819Z,27.70
2018-06-05T11:27:48.339Z,27.50
2018-06-05T11:30:16.904Z,27.00
2018-06-05T11:32:45.951Z,26.60
2018-06-05T11:35:14.744Z,26.40
2018-06-05T11:37:43.146Z,26.70
2018-06-05T11:40:11.674Z,27.20
2018-06-05T11:42:41.018Z,27.60
2018-06-05T11:45:09.627Z,27.60
2018-06-05T11:47:38.124Z,27.10
2018-06-05T11:52:34.917Z,27.70
2018-06-05T11:55:03.466Z,27.70
2018-06-05T11:57:31.955Z,27.80
2018-06-05T12:00:00.456Z,27.80
2018-06-05T12:02:28.968Z,27.80
2018-06-05T12:04:57.433Z,28.10
2018-06-05T12:07:25.916Z,28.40
2018-06-05T12:09:54.330Z,28.20
2018-06-05T12:12:22.879Z,28.10
2018-06-05T12:14:51.475Z,28.30
2018-06-05T12:17:20.674Z,28.50
2018-06-05T12:19:49.168Z,28.20
2018-06-05T12:22:17.741Z,28.00
2018-06-05T12:24:46.353Z,27.90
2018-06-05T12:27:14.799Z,28.00
2018-06-05T12:29:43.417Z,28.00
2018-06-05T12:32:12.082Z,28.10
2018-06-05T12:34:40.652Z,28.20
2018-06-05T12:37:09.382Z,28.40
2018-06-05T12:42:06.519Z,28.40
2018-06-05T12:44:35.103Z,28.50
2018-06-05T12:47:03.719Z,28.40
2018-06-05T12:52:00.462Z,28.50
2018-06-05T12:56:57.167Z,28.50
2018-06-05T12:59:25.661Z,28.40
2018-06-05T13:01:54.166Z,28.50
2018-06-05T13:04:22.677Z,28.50
2018-06-05T13:06:51.192Z,28.30
2018-06-05T13:09:19.679Z,28.10
2018-06-05T13:11:48.179Z,28.20
2018-06-05T13:14:16.637Z,28.30
2018-06-05T13:16:45.128Z,28.10
2018-06-05T13:19:13.701Z,28.00
2018-06-05T13:21:42.158Z,27.90
2018-06-05T13:24:10.668Z,27.90
2018-06-05T13:26:39.171Z,27.90
2018-06-05T13:29:07.712Z,28.00
2018-06-05T13:31:36.205Z,28.20
2018-06-05T13:34:04.919Z,28.40
2018-06-05T13:36:33.475Z,28.40
2018-06-05T13:39:02.082Z,28.40
2018-06-05T13:41:30.662Z,28.40
2018-06-05T13:43:59.201Z,28.30
2018-06-05T13:46:27.735Z,28.50
2018-06-05T13:48:56.341Z,28.20
2018-06-05T13:51:24.851Z,28.10
2018-06-05T13:53:54.026Z,28.20
2018-06-05T13:56:22.622Z,28.20
2018-06-05T14:01:19.492Z,28.20
2018-06-05T14:03:47.993Z,28.00
2018-06-05T14:06:16.689Z,28.10
2018-06-05T14:08:45.197Z,28.10
2018-06-05T14:11:13.894Z,28.10
2018-06-05T14:13:42.339Z,28.10
2018-06-05T14:16:10.867Z,28.00
2018-06-05T14:18:39.398Z,28.10
2018-06-05T14:21:07.977Z,28.10
2018-06-05T14:23:36.478Z,28.10
2018-06-05T14:26:05.112Z,28.20
2018-06-05T14:28:33.644Z,28.20
2018-06-05T14:31:02.177Z,28.20
2018-06-05T14:35:58.966Z,28.00
2018-06-05T14:38:27.470Z,28.00
2018-06-05T14:40:55.979Z,28.00
2018-06-05T14:43:24.586Z,28.10
2018-06-05T14:48:21.374Z,27.90
2018-06-05T14:50:50.042Z,27.90
2018-06-05T14:53:19.667Z,27.90
2018-06-05T14:55:48.166Z,27.70
2018-06-05T14:58:16.681Z,27.60
2018-06-05T15:00:45.256Z,27.70
2018-06-05T15:03:13.773Z,27.90
2018-06-05T15:05:42.308Z,27.80
2018-06-05T15:08:10.828Z,28.00
2018-06-05T15:13:07.534Z,28.00
2018-06-05T15:15:36.044Z,28.10
2018-06-05T15:18:04.606Z,28.10
2018-06-05T15:20:33.173Z,28.10
2018-06-05T15:23:01.697Z,28.20
2018-06-05T15:25:31.259Z,28.00
2018-06-05T15:27:59.784Z,28.00
2018-06-05T15:30:28.264Z,28.00
2018-06-05T15:32:56.784Z,28.00
2018-06-05T15:35:25.234Z,28.00
2018-06-05T15:37:53.721Z,28.00
2018-06-05T15:40:22.319Z,28.00
2018-06-05T15:45:18.949Z,27.80
2018-06-05T15:47:47.422Z,27.90
2018-06-05T15:50:15.982Z,27.80
2018-06-05T15:52:44.592Z,27.80
2018-06-05T15:55:13.139Z,27.90
2018-06-05T15:57:41.637Z,27.80
2018-06-05T16:00:10.171Z,27.90
2018-06-05T16:05:07.795Z,27.80
2018-06-05T16:07:36.339Z,27.90
2018-06-05T16:10:04.942Z,27.90
2018-06-05T16:12:33.483Z,27.90
2018-06-05T16:15:02.354Z,28.00
2018-06-05T16:17:30.881Z,27.80
2018-06-05T16:19:59.444Z,27.90
2018-06-05T16:24:56.194Z,27.90
2018-06-05T16:29:52.897Z,27.70
2018-06-05T16:32:21.420Z,27.70
2018-06-05T16:34:49.894Z,27.70
2018-06-05T16:37:18.370Z,27.70
2018-06-05T16:39:46.922Z,27.60
2018-06-05T16:42:15.407Z,27.70
2018-06-05T16:44:43.877Z,27.70
2018-06-05T16:47:12.493Z,27.70
2018-06-05T16:49:41.142Z,27.60
2018-06-05T16:52:09.664Z,27.60
2018-06-05T16:54:38.238Z,27.50
2018-06-05T16:57:06.726Z,27.50
2018-06-05T16:59:35.222Z,27.50
2018-06-05T17:02:03.921Z,27.60
2018-06-05T17:04:32.563Z,27.70
2018-06-05T17:09:30.214Z,27.50
2018-06-05T17:11:58.779Z,27.40
2018-06-05T17:16:55.484Z,27.50
2018-06-05T17:19:23.987Z,27.40
2018-06-05T17:21:52.603Z,27.40
2018-06-05T17:24:21.125Z,27.30
2018-06-05T17:26:49.658Z,27.30
2018-06-05T17:31:46.394Z,27.30
2018-06-05T17:34:14.927Z,27.30
2018-06-05T17:36:43.419Z,27.40
2018-06-05T17:39:11.878Z,27.30
2018-06-05T17:41:40.399Z,27.30
2018-06-05T17:44:10.096Z,27.40
2018-06-05T17:46:38.678Z,27.40
2018-06-05T17:49:07.275Z,27.40
2018-06-05T17:51:35.829Z,27.30
2018-06-05T17:54:04.340Z,27.20
2018-06-05T17:56:33.686Z,27.10
2018-06-05T18:01:30.422Z,26.90
2018-06-05T18:03:59.171Z,26.80
2018-06-05T18:06:27.633Z,26.90
2018-06-05T18:08:56.168Z,27.00
2018-06-05T18:11:24.672Z,27.00
2018-06-05T18:13:53.206Z,27.00
2018-06-05T18:16:21.743Z,27.00
2018-06-05T18:21:18.659Z,26.80
2018-06-05T18:28:43.873Z,26.50
2018-06-05T18:31:12.452Z,26.50
2018-06-05T18:33:41.051Z,26.40
2018-06-05T18:36:09.588Z,26.30
2018-06-05T18:38:38.145Z,26.30
2018-06-05T18:41:06.846Z,26.30
2018-06-05T18:43:35.453Z,26.30
2018-06-05T18:46:03.966Z,26.30
2018-06-05T18:48:32.503Z,26.20
2018-06-05T18:51:05.222Z,26.10
2018-06-05T18:53:33.828Z,26.00
2018-06-05T18:56:02.351Z,25.90
2018-06-05T19:00:59.027Z,25.80
2018-06-05T19:03:27.550Z,25.70
2018-06-05T19:05:56.047Z,25.70
2018-06-05T19:08:24.541Z,25.60
2018-06-05T19:10:53.077Z,25.50
2018-06-05T19:13:21.655Z,25.30
2018-06-05T19:15:50.246Z,25.20
2018-06-05T19:18:18.840Z,25.00
2018-06-05T19:20:47.371Z,24.90
2018-06-05T19:25:44.114Z,24.50
2018-06-05T19:30:40.872Z,24.30
2018-06-05T19:35:37.561Z,24.10
2018-06-05T19:38:06.200Z,24.00
2018-06-05T19:40:34.679Z,24.00
2018-06-05T19:43:03.185Z,23.80
2018-06-05T19:45:31.725Z,23.50
2018-06-05T19:48:00.282Z,23.20
2018-06-05T19:50:28.828Z,23.00
2018-06-05T19:52:57.408Z,23.00
2018-06-05T19:55:25.975Z,23.10
2018-06-05T19:57:55.212Z,22.90
2018-06-05T20:00:23.746Z,22.90
2018-06-05T20:02:52.335Z,22.80
2018-06-05T20:05:20.910Z,22.60
2018-06-05T20:07:49.447Z,22.50
2018-06-05T20:10:17.967Z,22.50
2018-06-05T20:12:46.504Z,22.40
2018-06-05T20:17:43.640Z,22.40
2018-06-05T20:20:12.131Z,22.40
2018-06-05T20:22:40.715Z,22.30
2018-06-05T20:25:09.252Z,22.40
2018-06-05T20:27:37.766Z,22.30
2018-06-05T20:30:06.418Z,22.10
2018-06-05T20:32:34.908Z,22.00
2018-06-05T20:35:03.460Z,21.90
2018-06-05T20:37:31.935Z,21.80
2018-06-05T20:40:01.443Z,21.90
2018-06-05T20:42:29.943Z,21.70
2018-06-05T20:44:58.440Z,21.70
2018-06-05T20:47:26.986Z,21.80
2018-06-05T20:49:55.500Z,21.70
2018-06-05T20:52:23.963Z,21.60
2018-06-05T20:54:52.431Z,21.50
2018-06-05T20:57:20.929Z,21.30
2018-06-05T20:59:49.402Z,21.20
2018-06-05T21:02:17.925Z,21.10
2018-06-05T21:04:46.415Z,21.20
2018-06-05T21:07:14.910Z,21.10
2018-06-05T21:12:11.604Z,20.90
2018-06-05T21:14:40.096Z,21.00
2018-06-05T21:17:08.652Z,21.00
2018-06-05T21:19:37.138Z,20.80
2018-06-05T21:22:05.662Z,20.90
2018-06-05T21:24:34.163Z,20.90
2018-06-05T21:27:02.639Z,20.80
2018-06-05T21:29:31.157Z,20.80
2018-06-05T21:31:59.666Z,20.70
2018-06-05T21:34:28.186Z,20.50
2018-06-05T21:36:56.691Z,20.50
2018-06-05T21:41:53.312Z,20.10
2018-06-05T21:44:21.774Z,19.80
2018-06-05T21:46:50.306Z,19.80
2018-06-05T21:49:18.747Z,19.40
2018-06-05T21:51:47.236Z,19.50
2018-06-05T21:54:15.747Z,19.60
2018-06-05T21:56:44.195Z,19.80
2018-06-05T21:59:12.755Z,19.60
2018-06-05T22:01:41.324Z,19.40
2018-06-05T22:04:09.762Z,19.40
2018-06-05T22:06:38.274Z,19.70
2018-06-05T22:09:08.950Z,19.70
2018-06-05T22:11:38.271Z,19.80
2018-06-05T22:14:06.766Z,19.70
2018-06-05T22:16:35.227Z,19.80
2018-06-05T22:19:03.744Z,19.70
2018-06-05T22:21:32.226Z,19.70
2018-06-05T22:24:00.680Z,19.60
2018-06-05T22:28:57.322Z,19.50
2018-06-05T22:31:25.844Z,19.30
2018-06-05T22:33:54.316Z,19.30
2018-06-05T22:36:23.169Z,19.20
2018-06-05T22:38:51.667Z,19.20
2018-06-05T22:41:20.210Z,19.30
2018-06-05T22:43:48.669Z,19.20
2018-06-05T22:46:17.134Z,19.40
2018-06-05T22:48:45.614Z,19.10
2018-06-05T22:51:14.097Z,19.00
2018-06-05T22:53:42.599Z,19.00
2018-06-05T22:56:11.050Z,19.00
2018-06-05T22:58:39.561Z,19.20
2018-06-05T23:01:08.033Z,19.30
2018-06-05T23:03:36.607Z,19.10
2018-06-05T23:06:05.129Z,19.20
2018-06-05T23:08:33.630Z,19.20
2018-06-05T23:11:02.079Z,19.20
2018-06-05T23:13:30.575Z,19.20
2018-06-05T23:15:59.049Z,19.10
2018-06-05T23:18:27.518Z,19.10
2018-06-05T23:20:55.991Z,19.20
2018-06-05T23:23:24.407Z,19.00
2018-06-05T23:25:52.908Z,18.90
2018-06-05T23:28:21.439Z,18.60
2018-06-05T23:30:49.902Z,18.70
2018-06-05T23:33:18.404Z,18.50
2018-06-05T23:35:46.830Z,18.40
2018-06-05T23:40:43.487Z,18.60
2018-06-05T23:50:36.510Z,18.70
2018-06-05T23:53:05.090Z,18.80
2018-06-05T23:55:33.565Z,18.70
